Weather at Beirut Rafic Hariri International Airport

Public forecast

Using degrees Celsius for public forecast. Weather courtesy of forecast.io.

Current aviation weather report (METAR) for Beirut Rafic Hariri International Airport

Retrieved 2020/11/24 09:00 UTC (22 minutes ago):

OLBA 240900Z 32005KT 290V350 7000 FEW026 21/12 Q1018 NOSIG

Aviation forecast (TAF) for Beirut Rafic Hariri International Airport

Retrieved 2020/11/24 06:00 UTC (3 hours ago):

TAF OLBA 240400Z 2406/2512 02005KT 8000 FEW200 BECMG 2409/2412 VRB02KT BECMG 2415/2418 03015KT SCT180 BECMG 2503/2506 11005KT 8000 NSC BECMG 2509/2512 29010KT FEW170